createdAt,value
2017-12-28T00:00:37.439Z,3.30
2017-12-28T00:03:06.581Z,3.20
2017-12-28T00:05:34.972Z,3.20
2017-12-28T00:08:03.327Z,3.20
2017-12-28T00:10:31.743Z,3.30
2017-12-28T00:13:00.787Z,3.30
2017-12-28T00:15:29.299Z,3.30
2017-12-28T00:18:00.376Z,3.20
2017-12-28T00:20:29.960Z,3.20
2017-12-28T00:23:00.000Z,3.30
2017-12-28T00:25:28.313Z,3.20
2017-12-28T00:27:57.387Z,3.20
2017-12-28T00:30:25.692Z,3.30
2017-12-28T00:32:53.959Z,3.20
2017-12-28T00:35:22.278Z,3.30
2017-12-28T00:37:50.644Z,3.20
2017-12-28T00:40:18.996Z,3.20
2017-12-28T00:42:47.367Z,3.20
2017-12-28T00:45:15.694Z,3.20
2017-12-28T00:47:43.996Z,3.20
2017-12-28T00:52:45.291Z,3.10
2017-12-28T00:55:20.718Z,3.10
2017-12-28T00:57:49.000Z,3.00
2017-12-28T01:00:17.313Z,3.00
2017-12-28T01:02:45.577Z,3.10
2017-12-28T01:05:13.845Z,3.10
2017-12-28T01:07:42.169Z,3.00
2017-12-28T01:10:11.198Z,3.00
2017-12-28T01:15:28.362Z,3.00
2017-12-28T01:17:57.651Z,3.00
2017-12-28T01:20:26.015Z,3.00
2017-12-28T01:22:54.439Z,3.00
2017-12-28T01:25:23.485Z,2.90
2017-12-28T01:27:51.818Z,2.90
2017-12-28T01:30:20.178Z,2.90
2017-12-28T01:32:48.459Z,3.00
2017-12-28T01:35:16.800Z,3.00
2017-12-28T01:37:45.097Z,3.00
2017-12-28T01:40:13.391Z,2.90
2017-12-28T01:42:41.727Z,3.00
2017-12-28T01:45:09.988Z,2.90
2017-12-28T01:47:38.265Z,3.00
2017-12-28T01:50:06.541Z,3.00
2017-12-28T01:52:34.791Z,3.00
2017-12-28T01:55:03.048Z,2.90
2017-12-28T01:57:32.085Z,2.90
2017-12-28T02:00:00.342Z,2.90
2017-12-28T02:02:28.608Z,2.90
2017-12-28T02:04:57.632Z,2.80
2017-12-28T02:07:25.901Z,2.80
2017-12-28T02:09:54.156Z,2.80
2017-12-28T02:12:22.422Z,2.80
2017-12-28T02:14:51.447Z,2.80
2017-12-28T02:17:19.712Z,2.80
2017-12-28T02:19:47.964Z,2.80
2017-12-28T02:22:17.002Z,2.80
2017-12-28T02:24:45.249Z,2.80
2017-12-28T02:27:13.513Z,2.80
2017-12-28T02:29:42.532Z,2.80
2017-12-28T02:32:10.789Z,2.80
2017-12-28T02:34:39.069Z,2.80
2017-12-28T02:37:07.341Z,2.80
2017-12-28T02:39:35.615Z,2.70
2017-12-28T02:42:04.633Z,2.70
2017-12-28T02:44:32.900Z,2.70
2017-12-28T02:47:01.161Z,2.70
2017-12-28T02:49:29.432Z,2.70
2017-12-28T02:51:57.693Z,2.70
2017-12-28T02:54:26.718Z,2.70
2017-12-28T02:56:54.980Z,2.70
2017-12-28T02:59:23.262Z,2.70
2017-12-28T03:01:51.533Z,2.60
2017-12-28T03:04:19.793Z,2.60
2017-12-28T03:06:48.832Z,2.50
2017-12-28T03:09:17.089Z,2.50
2017-12-28T03:11:45.353Z,2.50
2017-12-28T03:14:13.616Z,2.50
2017-12-28T03:16:42.645Z,2.50
2017-12-28T03:19:10.913Z,2.50
2017-12-28T03:21:39.167Z,2.50
2017-12-28T03:24:08.207Z,2.50
2017-12-28T03:26:36.473Z,2.50
2017-12-28T03:29:04.724Z,2.50
2017-12-28T03:31:32.989Z,2.50
2017-12-28T03:34:02.032Z,2.50
2017-12-28T03:36:30.300Z,2.50
2017-12-28T03:38:58.563Z,2.50
2017-12-28T03:41:26.824Z,2.50
2017-12-28T03:43:55.080Z,2.50
2017-12-28T03:46:24.106Z,2.50
2017-12-28T03:48:52.352Z,2.50
2017-12-28T03:51:21.387Z,2.50
2017-12-28T03:53:49.644Z,2.40
2017-12-28T03:56:17.908Z,2.50
2017-12-28T03:58:46.168Z,2.50
2017-12-28T04:01:15.196Z,2.50
2017-12-28T04:03:43.460Z,2.50
2017-12-28T04:06:11.729Z,2.50
2017-12-28T04:08:39.988Z,2.50
2017-12-28T04:11:09.023Z,2.50
2017-12-28T04:13:37.313Z,2.40
2017-12-28T04:16:05.568Z,2.40
2017-12-28T04:18:33.846Z,2.40
2017-12-28T04:21:02.114Z,2.40
2017-12-28T04:23:30.377Z,2.40
2017-12-28T04:25:58.637Z,2.40
2017-12-28T04:28:26.893Z,2.40
2017-12-28T04:30:55.149Z,2.40
2017-12-28T04:33:23.415Z,2.40
2017-12-28T04:35:51.681Z,2.40
2017-12-28T04:38:20.748Z,2.40
2017-12-28T04:40:49.010Z,2.40
2017-12-28T04:43:18.037Z,2.30
2017-12-28T04:45:46.305Z,2.30
2017-12-28T04:48:14.562Z,2.30
2017-12-28T04:50:43.633Z,2.30
2017-12-28T04:53:12.661Z,2.30
2017-12-28T04:55:40.930Z,2.30
2017-12-28T04:58:09.188Z,2.30
2017-12-28T05:00:38.220Z,2.20
2017-12-28T05:03:06.476Z,2.30
2017-12-28T05:05:34.746Z,2.20
2017-12-28T05:08:03.004Z,2.20
2017-12-28T05:10:32.033Z,2.10
2017-12-28T05:13:00.285Z,2.10
2017-12-28T05:15:28.552Z,2.10
2017-12-28T05:17:57.576Z,2.00
2017-12-28T05:20:25.836Z,2.00
2017-12-28T05:22:54.092Z,2.00
2017-12-28T05:25:23.114Z,1.90
2017-12-28T05:27:51.382Z,1.90
2017-12-28T05:30:19.644Z,1.90
2017-12-28T05:32:48.676Z,1.80
2017-12-28T05:35:16.928Z,1.80
2017-12-28T05:37:45.188Z,1.80
2017-12-28T05:40:14.224Z,1.80
2017-12-28T05:42:42.490Z,1.80
2017-12-28T05:45:10.749Z,1.80
2017-12-28T05:47:39.028Z,1.80
2017-12-28T05:50:07.333Z,1.80
2017-12-28T05:52:35.575Z,1.80
2017-12-28T05:55:03.836Z,1.80
2017-12-28T05:57:32.866Z,1.80
2017-12-28T06:00:01.124Z,1.80
2017-12-28T06:02:29.398Z,1.80
2017-12-28T06:04:57.653Z,1.80
2017-12-28T06:07:26.685Z,1.80
2017-12-28T06:09:54.944Z,1.80
2017-12-28T06:12:23.217Z,1.80
2017-12-28T06:14:51.482Z,1.70
2017-12-28T06:17:19.752Z,1.80
2017-12-28T06:19:48.789Z,1.80
2017-12-28T06:22:17.063Z,1.80
2017-12-28T06:24:45.317Z,1.80
2017-12-28T06:27:13.591Z,1.80
2017-12-28T06:29:41.849Z,1.80
2017-12-28T06:32:10.116Z,1.70
2017-12-28T06:34:39.147Z,1.70
2017-12-28T06:37:07.404Z,1.70
2017-12-28T06:39:35.665Z,1.60
2017-12-28T06:42:04.719Z,1.60
2017-12-28T06:44:32.970Z,1.60
2017-12-28T06:47:01.254Z,1.70
2017-12-28T06:49:29.518Z,1.70
2017-12-28T06:51:57.785Z,1.70
2017-12-28T06:54:26.039Z,1.70
2017-12-28T06:56:55.076Z,1.80
2017-12-28T06:59:24.104Z,1.70
2017-12-28T07:01:52.375Z,1.70
2017-12-28T07:04:20.638Z,1.80
2017-12-28T07:06:48.901Z,1.80
2017-12-28T07:09:17.177Z,1.90
2017-12-28T07:11:45.438Z,1.90
2017-12-28T07:14:13.710Z,1.90
2017-12-28T07:16:41.973Z,2.00
2017-12-28T07:19:10.248Z,2.00
2017-12-28T07:21:38.509Z,2.00
2017-12-28T07:24:07.541Z,2.10
2017-12-28T07:26:36.567Z,2.10
2017-12-28T07:29:04.836Z,2.10
2017-12-28T07:31:33.101Z,2.10
2017-12-28T07:34:01.369Z,2.10
2017-12-28T07:36:29.633Z,2.10
2017-12-28T07:38:57.893Z,2.20
2017-12-28T07:41:26.160Z,2.10
2017-12-28T07:43:54.421Z,2.10
2017-12-28T07:46:23.457Z,2.10
2017-12-28T07:48:51.727Z,2.00
2017-12-28T07:51:19.997Z,2.10
2017-12-28T07:53:48.261Z,2.00
2017-12-28T07:56:16.525Z,2.00
2017-12-28T07:58:45.545Z,2.00
2017-12-28T08:01:13.808Z,2.00
2017-12-28T08:03:42.072Z,2.10
2017-12-28T08:06:10.341Z,2.10
2017-12-28T08:08:39.378Z,2.00
2017-12-28T08:11:07.636Z,2.10
2017-12-28T08:13:35.908Z,2.10
2017-12-28T08:16:04.176Z,2.10
2017-12-28T08:18:32.435Z,2.10
2017-12-28T08:21:01.452Z,2.10
2017-12-28T08:23:29.718Z,2.10
2017-12-28T08:25:57.977Z,2.10
2017-12-28T08:28:27.039Z,2.10
2017-12-28T08:30:55.305Z,2.10
2017-12-28T08:33:23.613Z,2.20
2017-12-28T08:35:51.857Z,2.10
2017-12-28T08:38:20.137Z,2.20
2017-12-28T08:40:48.414Z,2.20
2017-12-28T08:43:18.185Z,2.20
2017-12-28T08:45:46.456Z,2.20
2017-12-28T08:48:14.723Z,2.20
2017-12-28T08:50:42.997Z,2.20
2017-12-28T08:53:11.259Z,2.20
2017-12-28T08:55:39.523Z,2.20
2017-12-28T08:58:07.790Z,2.30
2017-12-28T09:00:36.060Z,2.30
2017-12-28T09:03:04.333Z,2.30
2017-12-28T09:05:32.601Z,2.40
2017-12-28T09:08:00.865Z,2.30
2017-12-28T09:10:29.138Z,2.40
2017-12-28T09:12:57.399Z,2.40
2017-12-28T09:15:25.668Z,2.40
2017-12-28T09:17:53.922Z,2.50
2017-12-28T09:20:22.957Z,2.50
2017-12-28T09:22:51.221Z,2.50
2017-12-28T09:25:19.494Z,2.50
2017-12-28T09:27:47.754Z,2.50
2017-12-28T09:30:16.786Z,2.60
2017-12-28T09:32:45.043Z,2.60
2017-12-28T09:35:13.308Z,2.60
2017-12-28T09:37:41.569Z,2.70
2017-12-28T09:40:10.601Z,2.80
2017-12-28T09:42:38.857Z,2.70
2017-12-28T09:45:07.124Z,2.80
2017-12-28T09:47:36.137Z,2.70
2017-12-28T09:50:04.404Z,2.70
2017-12-28T09:52:32.656Z,2.70
2017-12-28T09:55:01.684Z,2.80
2017-12-28T09:57:29.936Z,2.70
2017-12-28T09:59:58.210Z,2.80
2017-12-28T10:02:27.231Z,2.90
2017-12-28T10:04:55.499Z,2.80
2017-12-28T10:07:23.763Z,2.80
2017-12-28T10:09:52.028Z,2.70
2017-12-28T10:12:21.050Z,2.60
2017-12-28T10:14:49.334Z,2.60
2017-12-28T10:17:17.594Z,2.60
2017-12-28T10:19:45.867Z,2.70
2017-12-28T10:22:14.132Z,2.70
2017-12-28T10:24:43.146Z,2.80
2017-12-28T10:27:11.415Z,2.70
2017-12-28T10:29:39.678Z,2.80
2017-12-28T10:32:07.929Z,2.80
2017-12-28T10:34:36.953Z,3.00
2017-12-28T10:37:05.204Z,2.90
2017-12-28T10:39:34.233Z,3.00
2017-12-28T10:42:02.505Z,3.00
2017-12-28T10:44:30.759Z,3.00
2017-12-28T10:46:59.036Z,2.90
2017-12-28T10:49:28.058Z,3.00
2017-12-28T10:51:56.308Z,2.90
2017-12-28T10:54:24.570Z,2.90
2017-12-28T10:56:53.598Z,3.00
2017-12-28T10:59:21.858Z,2.90
2017-12-28T11:01:50.126Z,3.00
2017-12-28T11:04:18.380Z,3.00
2017-12-28T11:06:47.414Z,3.00
2017-12-28T11:09:15.667Z,3.00
2017-12-28T11:11:43.942Z,3.00
2017-12-28T11:14:12.228Z,3.00
2017-12-28T11:16:40.492Z,3.10
2017-12-28T11:19:09.556Z,3.10
2017-12-28T11:21:37.961Z,3.10
2017-12-28T11:24:06.293Z,3.00
2017-12-28T11:26:34.628Z,3.10
2017-12-28T11:29:02.946Z,3.10
2017-12-28T11:31:31.259Z,3.00
2017-12-28T11:34:00.330Z,2.90
2017-12-28T11:36:28.612Z,2.90
2017-12-28T11:38:56.864Z,2.80
2017-12-28T11:41:25.120Z,2.70
2017-12-28T11:43:53.610Z,2.60
2017-12-28T11:49:23.583Z,2.60
2017-12-28T11:52:06.888Z,2.50
2017-12-28T11:54:40.558Z,2.70
2017-12-28T11:57:23.718Z,2.70
2017-12-28T11:59:59.641Z,2.70
2017-12-28T12:05:41.881Z,2.60
2017-12-28T12:08:10.956Z,2.60
2017-12-28T12:10:55.371Z,2.60
2017-12-28T12:13:23.834Z,2.50
2017-12-28T12:15:55.378Z,2.60
2017-12-28T12:18:26.308Z,2.70
2017-12-28T12:20:54.737Z,2.70
2017-12-28T12:23:25.903Z,3.00
2017-12-28T12:25:54.233Z,3.00
2017-12-28T12:28:22.574Z,2.90
2017-12-28T12:30:50.961Z,3.00
2017-12-28T12:33:19.273Z,3.00
2017-12-28T12:35:47.553Z,3.10
2017-12-28T12:38:15.850Z,2.90
2017-12-28T12:40:44.114Z,2.90
2017-12-28T12:43:13.170Z,2.80
2017-12-28T12:45:41.440Z,2.80
2017-12-28T12:48:09.881Z,2.90
2017-12-28T12:50:38.200Z,2.60
2017-12-28T12:53:06.573Z,2.50
2017-12-28T12:55:35.689Z,2.60
2017-12-28T12:58:04.043Z,2.60
2017-12-28T13:00:32.306Z,2.70
2017-12-28T13:03:00.588Z,2.70
2017-12-28T13:05:28.880Z,2.70
2017-12-28T13:07:57.180Z,3.10
2017-12-28T13:10:25.534Z,3.20
2017-12-28T13:12:53.847Z,3.20
2017-12-28T13:15:22.996Z,2.70
2017-12-28T13:17:51.342Z,2.70
2017-12-28T13:20:19.597Z,2.20
2017-12-28T13:22:48.634Z,1.60
2017-12-28T13:25:16.906Z,1.50
2017-12-28T13:27:45.197Z,1.40
2017-12-28T13:30:13.465Z,1.40
2017-12-28T13:32:41.785Z,1.40
2017-12-28T13:35:10.824Z,1.50
2017-12-28T13:37:39.080Z,1.40
2017-12-28T13:40:07.367Z,1.60
2017-12-28T13:42:35.629Z,1.70
2017-12-28T13:45:03.910Z,1.70
2017-12-28T13:47:32.205Z,1.50
2017-12-28T13:50:00.480Z,1.50
2017-12-28T13:52:28.745Z,1.50
2017-12-28T13:54:57.066Z,1.50
2017-12-28T13:57:25.309Z,1.50
2017-12-28T13:59:53.577Z,1.60
2017-12-28T14:02:21.876Z,1.80
2017-12-28T14:04:50.949Z,1.70
2017-12-28T14:07:19.233Z,1.70
2017-12-28T14:09:47.490Z,2.10
2017-12-28T14:12:15.834Z,2.40
2017-12-28T14:14:44.088Z,2.40
2017-12-28T14:17:12.362Z,2.10
2017-12-28T14:19:40.625Z,2.00
2017-12-28T14:22:09.744Z,1.90
2017-12-28T14:24:39.055Z,1.70
2017-12-28T14:27:08.146Z,1.60
2017-12-28T14:29:36.478Z,1.60
2017-12-28T14:32:04.847Z,1.60
2017-12-28T14:34:33.115Z,1.60
2017-12-28T14:37:01.414Z,1.60
2017-12-28T14:39:29.683Z,1.50
2017-12-28T14:41:57.950Z,1.50
2017-12-28T14:47:33.048Z,1.50
2017-12-28T14:50:01.321Z,1.50
2017-12-28T14:52:30.438Z,1.50
2017-12-28T14:55:00.895Z,1.40
2017-12-28T14:57:29.243Z,1.40
2017-12-28T14:59:57.553Z,1.40
2017-12-28T15:02:25.879Z,1.40
2017-12-28T15:04:54.204Z,1.40
2017-12-28T15:10:26.281Z,1.40
2017-12-28T15:12:54.634Z,1.50
2017-12-28T15:15:22.973Z,1.50
2017-12-28T15:17:55.169Z,1.50
2017-12-28T15:20:29.396Z,1.50
2017-12-28T15:23:16.478Z,1.60
2017-12-28T15:39:25.594Z,1.10
2017-12-28T15:41:53.903Z,1.10
2017-12-28T15:44:22.258Z,1.10
2017-12-28T15:46:50.585Z,1.20
2017-12-28T15:49:18.951Z,1.20
2017-12-28T15:51:48.033Z,1.20
2017-12-28T15:54:16.377Z,1.20
2017-12-28T15:56:44.721Z,1.30
2017-12-28T15:59:13.016Z,1.30
2017-12-28T16:01:41.343Z,1.30
2017-12-28T16:04:09.618Z,1.30
2017-12-28T16:06:37.917Z,1.30
2017-12-28T16:09:06.204Z,1.30
2017-12-28T16:11:34.500Z,1.30
2017-12-28T16:14:02.804Z,1.30
2017-12-28T16:16:31.212Z,1.30
2017-12-28T16:19:01.251Z,1.20
2017-12-28T16:21:29.603Z,1.20
2017-12-28T16:23:58.798Z,1.20
2017-12-28T16:26:28.642Z,1.20
2017-12-28T16:28:56.955Z,1.20
2017-12-28T16:31:44.634Z,1.20
2017-12-28T16:34:12.979Z,1.20
2017-12-28T16:36:41.428Z,1.20
2017-12-28T16:39:09.895Z,1.20
2017-12-28T16:41:38.301Z,1.20
2017-12-28T16:44:08.135Z,1.20
2017-12-28T16:46:36.521Z,1.20
2017-12-28T16:49:04.854Z,1.20
2017-12-28T16:51:33.163Z,1.20
2017-12-28T16:54:01.468Z,1.20
2017-12-28T16:56:30.500Z,1.10
2017-12-28T16:59:05.687Z,1.10
2017-12-28T17:01:34.033Z,1.10
2017-12-28T17:04:02.313Z,1.10
2017-12-28T17:06:30.637Z,1.10
2017-12-28T17:08:59.674Z,1.20
2017-12-28T17:11:28.907Z,1.20
2017-12-28T17:13:57.298Z,1.20
2017-12-28T17:16:26.414Z,1.20
2017-12-28T17:18:54.765Z,1.20
2017-12-28T17:21:23.863Z,1.20
2017-12-28T17:23:52.920Z,1.20
2017-12-28T17:26:21.300Z,1.20
2017-12-28T17:28:49.678Z,1.30
2017-12-28T17:31:18.710Z,1.30
2017-12-28T17:33:47.796Z,1.20
2017-12-28T17:36:16.091Z,1.30
2017-12-28T17:38:45.174Z,1.20
2017-12-28T17:41:14.247Z,1.30
2017-12-28T17:43:42.551Z,1.20
2017-12-28T17:46:11.615Z,1.20
2017-12-28T17:48:39.919Z,1.20
2017-12-28T17:51:08.975Z,1.20
2017-12-28T17:53:37.274Z,1.20
2017-12-28T17:56:05.572Z,1.20
2017-12-28T17:58:34.670Z,1.10
2017-12-28T18:01:02.970Z,1.10
2017-12-28T18:03:31.267Z,1.10
2017-12-28T18:05:59.563Z,1.10
2017-12-28T18:08:27.822Z,1.10
2017-12-28T18:10:56.137Z,1.00
2017-12-28T18:13:24.448Z,1.00
2017-12-28T18:15:52.760Z,0.90
2017-12-28T18:18:21.043Z,0.90
2017-12-28T18:20:49.341Z,0.90
2017-12-28T18:23:17.641Z,0.90
2017-12-28T18:25:46.718Z,0.80
2017-12-28T18:28:15.017Z,0.80
2017-12-28T18:30:43.331Z,0.80
2017-12-28T18:33:11.627Z,0.80
2017-12-28T18:35:39.927Z,0.70
2017-12-28T18:38:08.987Z,0.70
2017-12-28T18:40:37.246Z,0.70
2017-12-28T18:43:05.562Z,0.70
2017-12-28T18:45:33.816Z,0.60
2017-12-28T18:48:02.128Z,0.60
2017-12-28T18:50:31.193Z,0.50
2017-12-28T18:52:59.499Z,0.50
2017-12-28T18:55:28.516Z,0.50
2017-12-28T18:57:56.799Z,0.50
2017-12-28T19:00:25.110Z,0.50
2017-12-28T19:02:53.372Z,0.50
2017-12-28T19:05:21.760Z,0.50
2017-12-28T19:07:50.048Z,0.40
2017-12-28T19:10:18.400Z,0.40
2017-12-28T19:12:46.705Z,0.40
2017-12-28T19:15:15.042Z,0.30
2017-12-28T19:17:43.448Z,0.30
2017-12-28T19:20:11.782Z,0.20
2017-12-28T19:22:40.104Z,0.20
2017-12-28T19:25:08.415Z,0.20
2017-12-28T19:27:36.735Z,0.20
2017-12-28T19:30:05.037Z,0.10
2017-12-28T19:32:33.347Z,0.10
2017-12-28T19:35:01.673Z,0.10
2017-12-28T19:37:29.980Z,0.20
2017-12-28T19:39:58.286Z,0.20
2017-12-28T19:42:28.056Z,0.10
2017-12-28T19:44:56.417Z,0.10
2017-12-28T19:47:24.806Z,0.20
2017-12-28T19:49:53.168Z,0.20
2017-12-28T19:52:21.458Z,0.10
2017-12-28T19:54:49.765Z,0.00
2017-12-28T19:57:18.095Z,0.00
2017-12-28T19:59:46.388Z,0.00
2017-12-28T20:02:14.708Z,0.00
2017-12-28T20:04:43.014Z,0.00
2017-12-28T20:07:11.295Z,0.00
2017-12-28T20:09:39.596Z,0.00
2017-12-28T20:12:07.899Z,0.00
2017-12-28T20:14:36.202Z,0.00
2017-12-28T20:17:04.514Z,0.00
2017-12-28T20:19:32.807Z,0.00
2017-12-28T20:22:01.065Z,0.00
2017-12-28T20:24:29.376Z,-0.10
2017-12-28T20:26:57.719Z,-0.10
2017-12-28T20:29:26.066Z,-0.10
2017-12-28T20:31:55.336Z,0.00
2017-12-28T20:34:23.642Z,0.00
2017-12-28T20:36:52.690Z,0.00
2017-12-28T20:39:21.160Z,0.00
2017-12-28T20:41:49.478Z,0.00
2017-12-28T20:44:18.556Z,0.00
2017-12-28T20:46:46.847Z,0.00
2017-12-28T20:49:15.148Z,0.00
2017-12-28T20:51:43.454Z,0.00
2017-12-28T20:54:11.757Z,0.00
2017-12-28T20:56:40.056Z,-0.10
2017-12-28T20:59:08.381Z,-0.10
2017-12-28T21:01:36.689Z,-0.10
2017-12-28T21:04:05.010Z,-0.20
2017-12-28T21:06:33.312Z,-0.20
2017-12-28T21:09:01.619Z,-0.20
2017-12-28T21:11:29.933Z,-0.30
2017-12-28T21:13:59.013Z,-0.40
2017-12-28T21:16:27.312Z,-0.40
2017-12-28T21:18:55.860Z,-0.40
2017-12-28T21:21:24.173Z,-0.30
2017-12-28T21:23:52.577Z,-0.40
2017-12-28T21:26:20.931Z,-0.40
2017-12-28T21:28:49.244Z,-0.50
2017-12-28T21:31:17.550Z,-0.50
2017-12-28T21:33:45.888Z,-0.50
2017-12-28T21:36:14.207Z,-0.50
2017-12-28T21:38:42.517Z,-0.50
2017-12-28T21:41:10.831Z,-0.50
2017-12-28T21:43:39.153Z,-0.50
2017-12-28T21:46:08.246Z,-0.60
2017-12-28T21:48:37.351Z,-0.50
2017-12-28T21:51:05.701Z,-0.50
2017-12-28T21:53:34.029Z,-0.60
2017-12-28T21:56:02.341Z,-0.40
2017-12-28T21:58:30.649Z,-0.40
2017-12-28T22:01:04.145Z,-0.40
2017-12-28T22:03:33.215Z,-0.40
2017-12-28T22:06:01.516Z,-0.50
2017-12-28T22:08:30.585Z,-0.40
2017-12-28T22:10:58.943Z,-0.40
2017-12-28T22:13:27.247Z,-0.50
2017-12-28T22:15:56.331Z,-0.50
2017-12-28T22:18:24.639Z,-0.50
2017-12-28T22:20:53.756Z,-0.60
2017-12-28T22:23:22.070Z,-0.60
2017-12-28T22:25:50.408Z,-0.60
2017-12-28T22:28:18.846Z,-0.60
2017-12-28T22:30:47.163Z,-0.60
2017-12-28T22:33:15.469Z,-0.70
2017-12-28T22:35:43.937Z,-0.60
2017-12-28T22:38:12.244Z,-0.70
2017-12-28T22:40:40.551Z,-0.70
2017-12-28T22:43:09.620Z,-0.60
2017-12-28T22:45:37.955Z,-0.60
2017-12-28T22:48:07.060Z,-0.60
2017-12-28T22:50:35.366Z,-0.60
2017-12-28T22:53:03.678Z,-0.60
2017-12-28T22:55:32.008Z,-0.60
2017-12-28T22:58:00.339Z,-0.50
2017-12-28T23:00:28.683Z,-0.50
2017-12-28T23:02:57.780Z,-0.60
2017-12-28T23:05:26.085Z,-0.60
2017-12-28T23:07:55.166Z,-0.60
2017-12-28T23:10:23.471Z,-0.60
2017-12-28T23:12:51.861Z,-0.60
2017-12-28T23:15:20.170Z,-0.70
2017-12-28T23:17:49.289Z,-0.70
2017-12-28T23:20:17.593Z,-0.70
2017-12-28T23:22:45.895Z,-0.70
2017-12-28T23:25:14.201Z,-0.70
2017-12-28T23:27:42.504Z,-0.70
2017-12-28T23:30:10.923Z,-0.70
2017-12-28T23:32:39.363Z,-0.70
2017-12-28T23:35:08.576Z,-0.70
2017-12-28T23:37:36.958Z,-0.70
2017-12-28T23:40:05.356Z,-0.70
2017-12-28T23:42:33.793Z,-0.70
2017-12-28T23:45:02.920Z,-0.70
2017-12-28T23:47:31.287Z,-0.80
2017-12-28T23:49:59.828Z,-0.80
2017-12-28T23:52:28.228Z,-0.90
2017-12-28T23:54:57.411Z,-0.90
2017-12-28T23:57:25.818Z,-0.90
2017-12-28T23:59:54.243Z,-0.90
